createdAt,value
2017-05-29T13:59:13.725Z,1015.18
2017-05-29T14:00:05.924Z,1015.17
2017-05-29T14:00:54.946Z,1015.22
2017-05-29T14:01:38.792Z,1015.24
2017-05-29T14:02:24.355Z,1015.25
2017-05-29T14:03:11.506Z,1015.31
2017-05-29T14:04:00.823Z,1015.33
2017-05-29T14:04:47.549Z,1015.34
2017-05-29T14:05:33.583Z,1015.41
2017-05-29T14:06:23.505Z,1015.45
2017-05-29T14:07:07.177Z,1015.46
2017-05-29T14:07:49.597Z,1015.52
2017-05-29T14:08:31.039Z,1015.47
2017-05-29T14:09:12.423Z,1015.4
2017-05-29T14:09:52.916Z,1015.61
2017-05-29T14:10:33.428Z,1015.33
2017-05-29T14:11:13.933Z,1015.54
2017-05-29T14:11:54.483Z,1015.64
2017-05-29T14:12:34.939Z,1015.64
2017-05-29T14:13:15.441Z,1015.5
2017-05-29T14:13:55.934Z,1015.48
2017-05-29T14:14:36.426Z,1015.41
2017-05-29T14:15:16.956Z,1015.36
2017-05-29T14:15:57.474Z,1015.27
2017-05-29T14:16:37.984Z,1015.25
2017-05-29T14:17:18.474Z,1015.23
2017-05-29T14:17:58.960Z,1015.19
2017-05-29T14:18:39.484Z,1015.12
2017-05-29T14:19:19.986Z,1015.16
2017-05-29T14:20:00.498Z,1015.11
2017-05-29T14:20:41.185Z,1015.12
2017-05-29T14:21:21.988Z,1015.08
2017-05-29T14:22:02.812Z,1015.06
2017-05-29T14:22:43.603Z,1015.12
2017-05-29T14:23:24.487Z,1015.09
2017-05-29T14:24:05.315Z,1015.08
2017-05-29T14:24:46.137Z,1015.09
2017-05-29T14:25:26.997Z,1015.05
2017-05-29T14:26:07.832Z,1015
2017-05-29T14:26:48.654Z,1014.99
2017-05-29T14:27:29.403Z,1014.97
2017-05-29T14:28:09.905Z,1015.01
2017-05-29T14:28:50.430Z,1015.03
2017-05-29T14:29:30.917Z,1015.09
2017-05-29T14:30:11.408Z,1015.1
2017-05-29T14:30:51.892Z,1015.18
2017-05-29T14:31:32.416Z,1015.19
2017-05-29T14:32:12.917Z,1015.14
2017-05-29T14:32:53.417Z,1015.18
2017-05-29T14:33:33.923Z,1015.04
2017-05-29T14:34:14.431Z,1014.98
2017-05-29T14:34:54.950Z,1014.99
2017-05-29T14:35:35.425Z,1014.95
2017-05-29T14:36:15.909Z,1014.94
2017-05-29T14:36:56.434Z,1014.99
2017-05-29T14:37:36.901Z,1015.01
2017-05-29T14:38:17.418Z,1015.04
2017-05-29T14:38:57.898Z,1014.89
2017-05-29T14:39:38.393Z,1014.78
2017-05-29T14:40:18.888Z,1014.85
2017-05-29T14:40:59.373Z,1014.83
2017-05-29T14:41:39.876Z,1014.79
2017-05-29T14:42:20.412Z,1014.8
2017-05-29T14:43:00.907Z,1014.88
2017-05-29T14:43:41.367Z,1014.98
2017-05-29T14:44:21.896Z,1015.09
2017-05-29T14:45:02.414Z,1015.16
2017-05-29T14:45:42.978Z,1015.15
2017-05-29T14:46:23.622Z,1015.17
2017-05-29T14:47:04.113Z,1015.08
2017-05-29T14:47:44.630Z,1015.09
2017-05-29T14:48:25.130Z,1014.88
2017-05-29T14:49:05.636Z,1014.81
2017-05-29T14:49:46.154Z,1014.84
2017-05-29T14:50:26.635Z,1014.73
2017-05-29T14:51:07.145Z,1014.85
2017-05-29T14:51:47.650Z,1014.84
2017-05-29T14:52:28.125Z,1014.74
2017-05-29T14:53:13.389Z,1014.75
2017-05-29T14:53:55.181Z,1014.75
2017-05-29T14:54:35.774Z,1014.81
2017-05-29T14:55:16.250Z,1014.75
2017-05-29T14:55:56.713Z,1014.74
2017-05-29T14:56:37.264Z,1014.77
2017-05-29T14:57:17.831Z,1014.81
2017-05-29T14:57:58.322Z,1014.86
2017-05-29T14:58:38.831Z,1014.79
2017-05-29T14:59:19.318Z,1014.78
2017-05-29T14:59:59.867Z,1014.79
2017-05-29T15:00:40.383Z,1014.69
2017-05-29T15:01:20.851Z,1014.7
2017-05-29T15:02:01.400Z,1014.72
2017-05-29T15:02:42.039Z,1014.66
2017-05-29T15:03:22.531Z,1014.69
2017-05-29T15:04:03.025Z,1014.73
2017-05-29T15:04:43.509Z,1014.76
2017-05-29T15:05:24.026Z,1014.72
2017-05-29T15:06:04.559Z,1014.66
2017-05-29T15:06:45.250Z,1014.67
2017-05-29T15:07:25.727Z,1014.69
2017-05-29T15:08:06.238Z,1014.7
2017-05-29T15:08:46.743Z,1014.76
2017-05-29T15:09:27.262Z,1014.79
2017-05-29T15:10:07.743Z,1014.86
2017-05-29T15:10:48.210Z,1014.86
2017-05-29T15:11:28.731Z,1014.82
2017-05-29T15:12:09.208Z,1014.84
2017-05-29T15:12:49.728Z,1014.88
2017-05-29T15:13:30.226Z,1014.78
2017-05-29T15:14:10.704Z,1014.72
2017-05-29T15:14:51.205Z,1014.61
2017-05-29T15:15:31.708Z,1014.5
2017-05-29T15:16:12.244Z,1014.44
2017-05-29T15:16:52.751Z,1014.39
2017-05-29T15:17:33.253Z,1014.33
2017-05-29T15:18:13.746Z,1014.29
2017-05-29T15:18:54.253Z,1014.22
2017-05-29T15:19:34.739Z,1014.28
2017-05-29T15:20:15.237Z,1014.26
2017-05-29T15:20:55.770Z,1014.29
2017-05-29T15:21:36.321Z,1014.37
2017-05-29T15:22:16.808Z,1014.32
2017-05-29T15:23:01.123Z,1014.32
2017-05-29T15:23:41.621Z,1014.34
2017-05-29T15:24:22.113Z,1014.35
2017-05-29T15:25:02.604Z,1014.36
2017-05-29T15:25:43.119Z,1014.37
2017-05-29T15:26:23.598Z,1014.31
2017-05-29T15:27:04.096Z,1014.21
2017-05-29T15:27:44.599Z,1014.09
2017-05-29T15:28:25.112Z,1013.96
2017-05-29T15:29:05.618Z,1013.87
2017-05-29T15:29:46.103Z,1013.85
2017-05-29T15:30:26.595Z,1013.89
2017-05-29T15:31:07.084Z,1013.88
2017-05-29T15:31:47.627Z,1013.88
2017-05-29T15:32:28.230Z,1013.95
2017-05-29T15:33:08.714Z,1014.02
2017-05-29T15:33:49.204Z,1014.06
2017-05-29T15:34:29.684Z,1014.13
2017-05-29T15:35:10.208Z,1014.15
2017-05-29T15:35:50.787Z,1014.19
2017-05-29T15:36:31.269Z,1014.18
2017-05-29T15:37:11.772Z,1014.27
2017-05-29T15:37:52.264Z,1014.31
2017-05-29T15:38:32.749Z,1014.39
2017-05-29T15:39:13.232Z,1014.43
2017-05-29T15:39:53.708Z,1014.42
2017-05-29T15:40:34.234Z,1014.41
2017-05-29T15:41:14.732Z,1014.43
2017-05-29T15:41:55.302Z,1014.41
2017-05-29T15:42:35.781Z,1014.46
2017-05-29T15:43:16.273Z,1014.46
2017-05-29T15:43:56.741Z,1014.46
2017-05-29T15:44:37.234Z,1014.48
2017-05-29T15:45:17.723Z,1014.44
2017-05-29T15:45:58.201Z,1014.35
2017-05-29T15:46:38.695Z,1014.41
2017-05-29T15:47:19.189Z,1014.38
2017-05-29T15:47:59.689Z,1014.38
2017-05-29T15:48:40.173Z,1014.37
2017-05-29T15:49:20.901Z,1014.33
2017-05-29T15:50:01.428Z,1014.31
2017-05-29T15:50:41.907Z,1014.35
2017-05-29T15:51:22.425Z,1014.32
2017-05-29T15:52:02.925Z,1014.3
2017-05-29T15:52:43.440Z,1014.27
2017-05-29T15:53:23.894Z,1014.3
2017-05-29T15:54:04.429Z,1014.28
2017-05-29T15:54:44.928Z,1014.3
2017-05-29T15:55:25.425Z,1014.32
2017-05-29T15:56:05.924Z,1014.34
2017-05-29T15:56:46.414Z,1014.39
2017-05-29T15:57:26.950Z,1014.54
2017-05-29T15:58:07.447Z,1014.52
2017-05-29T15:58:48.696Z,1014.51
2017-05-29T15:59:29.177Z,1014.52
2017-05-29T16:00:09.679Z,1014.55
2017-05-29T16:00:50.144Z,1014.54
2017-05-29T16:01:30.636Z,1014.52
2017-05-29T16:02:11.130Z,1014.46
2017-05-29T16:02:51.619Z,1014.5
2017-05-29T16:03:32.121Z,1014.51
2017-05-29T16:04:12.610Z,1014.57
2017-05-29T16:04:53.119Z,1014.48
2017-05-29T16:05:33.586Z,1014.45
2017-05-29T16:06:14.070Z,1014.46
2017-05-29T16:06:54.571Z,1014.43
2017-05-29T16:07:35.071Z,1014.42
2017-05-29T16:08:15.555Z,1014.36
2017-05-29T16:08:56.044Z,1014.31
2017-05-29T16:09:36.556Z,1014.22
2017-05-29T16:10:17.056Z,1014.11
2017-05-29T16:10:57.553Z,1013.99
2017-05-29T16:11:38.039Z,1013.89
2017-05-29T16:12:18.527Z,1013.8
2017-05-29T16:12:59.029Z,1013.69
2017-05-29T16:13:39.516Z,1013.58
2017-05-29T16:14:20.000Z,1013.53
2017-05-29T16:15:00.525Z,1013.53
2017-05-29T16:15:41.014Z,1013.62
2017-05-29T16:16:21.549Z,1013.69
2017-05-29T16:17:02.003Z,1013.76
2017-05-29T16:17:42.501Z,1013.76
2017-05-29T16:18:23.006Z,1013.69
2017-05-29T16:19:03.472Z,1013.64
2017-05-29T16:19:43.966Z,1013.54
2017-05-29T16:20:24.477Z,1013.47
2017-05-29T16:21:04.957Z,1013.44
2017-05-29T16:21:45.447Z,1013.46
2017-05-29T16:22:25.953Z,1013.41
2017-05-29T16:23:06.494Z,1013.34
2017-05-29T16:23:46.927Z,1013.25
2017-05-29T16:24:27.428Z,1013.24
2017-05-29T16:25:07.936Z,1013.24
2017-05-29T16:25:48.432Z,1013.32
2017-05-29T16:26:28.910Z,1013.4
2017-05-29T16:27:09.410Z,1013.44
2017-05-29T16:27:49.883Z,1013.55
2017-05-29T16:28:30.376Z,1013.58
2017-05-29T16:29:10.877Z,1013.61
2017-05-29T16:29:51.368Z,1013.61
2017-05-29T16:30:31.837Z,1013.58
2017-05-29T16:31:12.324Z,1013.58
2017-05-29T16:31:52.785Z,1013.54
2017-05-29T16:32:33.276Z,1013.54
2017-05-29T16:33:13.772Z,1013.45
2017-05-29T16:33:54.266Z,1013.48
2017-05-29T16:34:34.748Z,1013.48
2017-05-29T16:35:15.231Z,1013.48
2017-05-29T16:35:55.716Z,1013.49
2017-05-29T16:36:36.229Z,1013.49
2017-05-29T16:37:16.722Z,1013.48
2017-05-29T16:37:57.175Z,1013.46
2017-05-29T16:38:37.668Z,1013.48
2017-05-29T16:39:18.195Z,1013.47
2017-05-29T16:39:58.655Z,1013.43
2017-05-29T16:40:39.167Z,1013.5
2017-05-29T16:41:19.645Z,1013.47
2017-05-29T16:42:00.113Z,1013.49
2017-05-29T16:42:40.636Z,1013.52
2017-05-29T16:43:21.090Z,1013.49
2017-05-29T16:44:01.601Z,1013.51
2017-05-29T16:44:42.094Z,1013.47
2017-05-29T16:45:22.603Z,1013.47
2017-05-29T16:46:03.133Z,1013.39
2017-05-29T16:46:43.613Z,1013.4
2017-05-29T16:47:24.082Z,1013.37
2017-05-29T16:48:04.574Z,1013.39
2017-05-29T16:48:45.087Z,1013.36
2017-05-29T16:49:25.553Z,1013.37
2017-05-29T16:50:06.046Z,1013.43
2017-05-29T16:50:46.514Z,1013.42
2017-05-29T16:51:27.016Z,1013.41
2017-05-29T16:52:07.502Z,1013.44
2017-05-29T16:52:48.002Z,1013.46
2017-05-29T16:53:28.508Z,1013.45
2017-05-29T16:54:09.000Z,1013.45
2017-05-29T16:54:49.518Z,1013.48
2017-05-29T16:55:30.016Z,1013.52
2017-05-29T16:56:10.516Z,1013.45
2017-05-29T16:56:50.989Z,1013.49
2017-05-29T16:57:31.499Z,1013.47
2017-05-29T16:58:11.987Z,1013.5
2017-05-29T16:58:52.508Z,1013.48
2017-05-29T16:59:33.009Z,1013.48
2017-05-29T17:00:13.484Z,1013.45
2017-05-29T17:00:54.014Z,1013.42
2017-05-29T17:01:34.473Z,1013.44
2017-05-29T17:02:14.972Z,1013.42
2017-05-29T17:02:55.502Z,1013.42
2017-05-29T17:03:35.992Z,1013.43
2017-05-29T17:04:16.456Z,1013.42
2017-05-29T17:04:57.104Z,1013.44
2017-05-29T17:05:37.536Z,1013.43
2017-05-29T17:06:18.045Z,1013.52
2017-05-29T17:06:58.640Z,1013.45
2017-05-29T17:07:39.150Z,1013.44
2017-05-29T17:08:19.627Z,1013.4
2017-05-29T17:09:00.132Z,1013.33
2017-05-29T17:09:40.659Z,1013.38
2017-05-29T17:10:21.167Z,1013.42
2017-05-29T17:11:01.639Z,1013.47
2017-05-29T17:11:42.134Z,1013.49
2017-05-29T17:12:22.632Z,1013.51
2017-05-29T17:13:03.142Z,1013.51
2017-05-29T17:13:43.635Z,1013.53
2017-05-29T17:14:24.153Z,1013.54
2017-05-29T17:15:04.627Z,1013.53
2017-05-29T17:15:45.127Z,1013.54
2017-05-29T17:16:25.608Z,1013.58
2017-05-29T17:17:06.099Z,1013.54
2017-05-29T17:17:46.609Z,1013.56
2017-05-29T17:18:27.056Z,1013.59
2017-05-29T17:19:07.587Z,1013.55
2017-05-29T17:19:48.141Z,1013.67
2017-05-29T17:20:28.594Z,1013.59
2017-05-29T17:21:09.129Z,1013.61
2017-05-29T17:21:49.636Z,1013.65
2017-05-29T17:22:30.159Z,1013.63
2017-05-29T17:23:10.697Z,1013.63
2017-05-29T17:23:51.190Z,1013.64
2017-05-29T17:24:31.695Z,1013.63
2017-05-29T17:25:12.223Z,1013.68
2017-05-29T17:25:52.716Z,1013.65
2017-05-29T17:26:33.216Z,1013.68
2017-05-29T17:27:13.717Z,1013.72
2017-05-29T17:27:54.246Z,1013.69
2017-05-29T17:28:34.726Z,1013.7
2017-05-29T17:29:15.216Z,1013.67
2017-05-29T17:29:55.687Z,1013.69
2017-05-29T17:30:36.176Z,1013.64
2017-05-29T17:31:16.656Z,1013.66
2017-05-29T17:31:57.138Z,1013.66
2017-05-29T17:32:37.635Z,1013.61
2017-05-29T17:33:18.112Z,1013.6
2017-05-29T17:33:58.597Z,1013.61
2017-05-29T17:34:39.118Z,1013.67
2017-05-29T17:35:19.625Z,1013.61
2017-05-29T17:36:00.088Z,1013.61
2017-05-29T17:36:40.614Z,1013.63
2017-05-29T17:37:21.065Z,1013.62
2017-05-29T17:38:01.561Z,1013.61
2017-05-29T17:38:42.073Z,1013.63
2017-05-29T17:39:22.546Z,1013.55
2017-05-29T17:40:03.137Z,1013.56
2017-05-29T17:40:43.653Z,1013.54
2017-05-29T17:41:24.162Z,1013.51
2017-05-29T17:42:04.673Z,1013.49
2017-05-29T17:42:45.178Z,1013.41
2017-05-29T17:43:25.663Z,1013.38
2017-05-29T17:44:06.151Z,1013.36
2017-05-29T17:44:46.626Z,1013.32
2017-05-29T17:45:27.111Z,1013.34
2017-05-29T17:46:07.611Z,1013.3
2017-05-29T17:46:48.126Z,1013.23
2017-05-29T17:47:28.631Z,1013.21
2017-05-29T17:48:10.249Z,1013.15
2017-05-29T17:48:50.739Z,1013.16
2017-05-29T17:49:31.244Z,1013.18
2017-05-29T17:50:11.729Z,1013.18
2017-05-29T17:50:52.227Z,1013.19
2017-05-29T17:51:32.710Z,1013.18
2017-05-29T17:52:13.219Z,1013.13
2017-05-29T17:52:53.701Z,1013.14
2017-05-29T17:53:34.224Z,1013.14
2017-05-29T17:54:14.701Z,1013.13
2017-05-29T17:54:55.188Z,1013.17
2017-05-29T17:55:35.689Z,1013.16
2017-05-29T17:56:16.190Z,1013.18
2017-05-29T17:56:56.671Z,1013.16
2017-05-29T17:57:39.036Z,1013.17
2017-05-29T17:58:19.523Z,1013.16
2017-05-29T17:59:00.006Z,1013.15
2017-05-29T17:59:40.529Z,1013.1
2017-05-29T18:00:21.017Z,1013.09
2017-05-29T18:01:01.515Z,1013.08
2017-05-29T18:01:41.974Z,1013.13
2017-05-29T18:02:22.501Z,1013.13
2017-05-29T18:03:02.953Z,1013.2
2017-05-29T18:03:43.459Z,1013.27
2017-05-29T18:04:23.974Z,1013.3
2017-05-29T18:05:04.459Z,1013.34
2017-05-29T18:05:44.972Z,1013.32
2017-05-29T18:06:25.477Z,1013.33
2017-05-29T18:07:05.966Z,1013.29
2017-05-29T18:07:46.432Z,1013.3
2017-05-29T18:08:26.960Z,1013.26
2017-05-29T18:09:07.441Z,1013.28
2017-05-29T18:09:47.934Z,1013.27
2017-05-29T18:10:28.423Z,1013.28
2017-05-29T18:11:08.911Z,1013.38
2017-05-29T18:11:49.432Z,1013.35
2017-05-29T18:12:29.904Z,1013.4
2017-05-29T18:13:10.420Z,1013.39
2017-05-29T18:13:50.906Z,1013.39
2017-05-29T18:14:31.410Z,1013.42
2017-05-29T18:15:11.899Z,1013.4
2017-05-29T18:15:52.401Z,1013.4
2017-05-29T18:16:32.869Z,1013.42
2017-05-29T18:17:13.365Z,1013.45
2017-05-29T18:17:53.886Z,1013.38
2017-05-29T18:18:35.357Z,1013.37
2017-05-29T18:19:15.866Z,1013.36
2017-05-29T18:19:56.337Z,1013.36
2017-05-29T18:20:36.889Z,1013.38
2017-05-29T18:21:17.411Z,1013.35
2017-05-29T18:21:57.870Z,1013.37
2017-05-29T18:22:38.387Z,1013.33
2017-05-29T18:23:18.861Z,1013.35
2017-05-29T18:23:59.358Z,1013.34
2017-05-29T18:24:39.844Z,1013.31
2017-05-29T18:25:20.329Z,1013.31
2017-05-29T18:26:00.795Z,1013.33
2017-05-29T18:26:41.296Z,1013.34
2017-05-29T18:27:21.790Z,1013.33
2017-05-29T18:28:02.299Z,1013.35
2017-05-29T18:28:42.819Z,1013.37
2017-05-29T18:29:23.304Z,1013.43
2017-05-29T18:30:03.798Z,1013.4
2017-05-29T18:30:44.296Z,1013.39
2017-05-29T18:31:24.811Z,1013.38
2017-05-29T18:32:05.306Z,1013.36
2017-05-29T18:32:45.775Z,1013.32
2017-05-29T18:33:26.269Z,1013.32
2017-05-29T18:34:06.779Z,1013.28
2017-05-29T18:34:47.270Z,1013.28
2017-05-29T18:35:27.860Z,1013.3
2017-05-29T18:36:08.305Z,1013.32
2017-05-29T18:36:48.844Z,1013.34
2017-05-29T18:37:29.311Z,1013.33
2017-05-29T18:38:09.836Z,1013.27
2017-05-29T18:38:50.338Z,1013.28
2017-05-29T18:39:30.837Z,1013.29
2017-05-29T18:40:11.377Z,1013.3
2017-05-29T18:40:51.857Z,1013.3
2017-05-29T18:41:32.352Z,1013.26
2017-05-29T18:42:12.833Z,1013.27
2017-05-29T18:42:53.335Z,1013.29
2017-05-29T18:43:33.825Z,1013.28
2017-05-29T18:44:14.319Z,1013.24
2017-05-29T18:44:54.828Z,1013.24
2017-05-29T18:45:35.304Z,1013.24
2017-05-29T18:46:15.812Z,1013.18
2017-05-29T18:46:56.292Z,1013.17
2017-05-29T18:47:36.809Z,1013.17
2017-05-29T18:48:17.309Z,1013.16
2017-05-29T18:48:57.796Z,1013.17
2017-05-29T18:49:38.295Z,1013.16
2017-05-29T18:50:18.786Z,1013.11
2017-05-29T18:50:59.296Z,1013.11
2017-05-29T18:51:39.776Z,1013.07
2017-05-29T18:52:20.258Z,1013.07
2017-05-29T18:53:00.752Z,1013.1
2017-05-29T18:53:41.284Z,1013.11
2017-05-29T18:54:21.763Z,1013.07
2017-05-29T18:55:02.257Z,1013.12
2017-05-29T18:55:42.798Z,1013.08
2017-05-29T18:56:23.275Z,1013.12
2017-05-29T18:57:03.769Z,1013.12
2017-05-29T18:57:44.267Z,1013.1
2017-05-29T18:58:24.750Z,1013.14
2017-05-29T18:59:05.241Z,1013.15
2017-05-29T18:59:45.762Z,1013.14
2017-05-29T19:00:26.259Z,1013.17
2017-05-29T19:01:06.773Z,1013.14
2017-05-29T19:01:47.293Z,1013.08
2017-05-29T19:02:27.750Z,1013.12
2017-05-29T19:03:08.257Z,1013.08
2017-05-29T19:03:48.750Z,1013.09
2017-05-29T19:04:29.267Z,1013.05
2017-05-29T19:05:09.729Z,1013.09
2017-05-29T19:05:50.242Z,1013.03
2017-05-29T19:06:30.734Z,1013.06
2017-05-29T19:07:11.207Z,1013.02
2017-05-29T19:07:51.728Z,1013.03
2017-05-29T19:08:32.187Z,1013.02
2017-05-29T19:09:12.729Z,1012.97
2017-05-29T19:09:53.210Z,1013.01
2017-05-29T19:10:33.705Z,1012.99
2017-05-29T19:11:14.188Z,1012.98
2017-05-29T19:11:54.680Z,1013
2017-05-29T19:12:35.167Z,1013
2017-05-29T19:13:15.676Z,1012.97
2017-05-29T19:13:56.188Z,1012.96
2017-05-29T19:14:36.733Z,1012.95
2017-05-29T19:15:17.171Z,1012.96
2017-05-29T19:15:57.652Z,1012.94
2017-05-29T19:16:38.147Z,1012.94
2017-05-29T19:17:18.673Z,1012.92
2017-05-29T19:17:59.162Z,1012.94
2017-05-29T19:18:39.659Z,1012.94
2017-05-29T19:19:20.150Z,1012.92
2017-05-29T19:20:00.687Z,1012.96
2017-05-29T19:20:41.221Z,1012.94
2017-05-29T19:21:21.727Z,1012.98
2017-05-29T19:22:02.183Z,1012.93
2017-05-29T19:22:42.678Z,1012.91
2017-05-29T19:23:23.182Z,1012.95
2017-05-29T19:24:03.713Z,1012.97
2017-05-29T19:24:44.220Z,1012.99
2017-05-29T19:25:24.704Z,1013.01
2017-05-29T19:26:05.192Z,1013.02
2017-05-29T19:26:45.678Z,1012.98
2017-05-29T19:27:26.185Z,1013.02
2017-05-29T19:28:06.671Z,1012.98
2017-05-29T19:28:47.176Z,1012.98
2017-05-29T19:29:27.681Z,1012.97
2017-05-29T19:30:08.193Z,1013
2017-05-29T19:30:48.697Z,1012.97
2017-05-29T19:31:29.189Z,1013
2017-05-29T19:32:09.685Z,1012.99
2017-05-29T19:32:50.192Z,1012.98
2017-05-29T19:33:30.705Z,1013
2017-05-29T19:34:11.228Z,1013.03
2017-05-29T19:34:51.762Z,1012.99
2017-05-29T19:35:32.199Z,1013.02
2017-05-29T19:36:12.684Z,1013.02
2017-05-29T19:36:53.192Z,1013
2017-05-29T19:37:33.681Z,1013.03
2017-05-29T19:38:14.184Z,1013.04
2017-05-29T19:38:54.705Z,1013.04
2017-05-29T19:39:35.188Z,1013.02
2017-05-29T19:40:15.687Z,1012.99
2017-05-29T19:40:56.183Z,1012.97
2017-05-29T19:41:36.749Z,1012.99
2017-05-29T19:42:17.157Z,1012.97
2017-05-29T19:42:57.666Z,1012.98
2017-05-29T19:43:38.163Z,1012.99
2017-05-29T19:44:18.665Z,1013.02
2017-05-29T19:44:59.174Z,1013.01
2017-05-29T19:45:39.666Z,1013.04
2017-05-29T19:46:20.169Z,1013
2017-05-29T19:47:00.667Z,1013.04
2017-05-29T19:47:41.155Z,1013
2017-05-29T19:48:21.650Z,1013.03
2017-05-29T19:49:02.139Z,1012.99
2017-05-29T19:49:42.646Z,1013.04
2017-05-29T19:50:23.139Z,1013.04
2017-05-29T19:51:03.663Z,1013.05
2017-05-29T19:51:44.215Z,1013.07
2017-05-29T19:52:24.703Z,1013.02
2017-05-29T19:53:05.201Z,1013.05
2017-05-29T19:53:45.704Z,1013.01
2017-05-29T19:54:26.193Z,1013.03
2017-05-29T19:55:06.675Z,1013.02
2017-05-29T19:55:47.197Z,1013.02
2017-05-29T19:56:27.672Z,1013.05
2017-05-29T19:57:08.174Z,1013.03
2017-05-29T19:57:48.669Z,1013.09
2017-05-29T19:58:29.156Z,1013.07
2017-05-29T19:59:09.668Z,1013.05
2017-05-29T19:59:50.140Z,1013.04
2017-05-29T20:00:30.630Z,1013.08
2017-05-29T20:01:11.138Z,1013.11
2017-05-29T20:01:51.637Z,1013.05
2017-05-29T20:02:32.123Z,1013.08
2017-05-29T20:03:12.615Z,1013.1
2017-05-29T20:03:53.094Z,1013.07
2017-05-29T20:04:33.574Z,1013.11
2017-05-29T20:05:14.094Z,1013.08
2017-05-29T20:05:54.596Z,1013.08
2017-05-29T20:06:35.110Z,1013.12
2017-05-29T20:07:15.565Z,1013.15
2017-05-29T20:07:56.077Z,1013.07
2017-05-29T20:08:36.594Z,1013.09
2017-05-29T20:09:17.075Z,1013.1
2017-05-29T20:09:57.594Z,1013.09
2017-05-29T20:10:38.084Z,1013.06
2017-05-29T20:11:18.549Z,1013.07
2017-05-29T20:11:59.078Z,1013.09
2017-05-29T20:12:39.579Z,1013.06
2017-05-29T20:13:20.059Z,1013.08
2017-05-29T20:14:00.542Z,1013.1
2017-05-29T20:14:41.025Z,1013.06
2017-05-29T20:15:21.531Z,1013.09
2017-05-29T20:16:02.048Z,1013.09
2017-05-29T20:16:42.523Z,1013.05
2017-05-29T20:17:22.999Z,1013.04
2017-05-29T20:18:03.472Z,1013.04
2017-05-29T20:18:43.986Z,1013
2017-05-29T20:19:24.492Z,1012.99
2017-05-29T20:20:04.993Z,1012.99
2017-05-29T20:20:45.469Z,1013
2017-05-29T20:21:25.977Z,1013
2017-05-29T20:22:06.454Z,1012.97
2017-05-29T20:22:46.979Z,1012.97
2017-05-29T20:23:27.476Z,1012.95
2017-05-29T20:24:07.977Z,1012.95
2017-05-29T20:24:48.508Z,1012.95
2017-05-29T20:25:28.998Z,1012.96
2017-05-29T20:26:09.497Z,1012.97
2017-05-29T20:26:50.004Z,1012.95
2017-05-29T20:27:30.453Z,1012.9
2017-05-29T20:28:10.949Z,1012.94
2017-05-29T20:28:51.421Z,1012.95
2017-05-29T20:29:31.951Z,1012.91
2017-05-29T20:30:12.430Z,1012.92
2017-05-29T20:30:52.924Z,1012.87
2017-05-29T20:31:33.420Z,1012.86
2017-05-29T20:32:13.914Z,1012.9
2017-05-29T20:32:54.402Z,1012.88
2017-05-29T20:33:34.906Z,1012.85
2017-05-29T20:34:15.385Z,1012.83
2017-05-29T20:34:55.865Z,1012.81
2017-05-29T20:35:36.363Z,1012.84
2017-05-29T20:36:16.855Z,1012.83
2017-05-29T20:36:57.372Z,1012.87
2017-05-29T20:37:37.841Z,1012.81
2017-05-29T20:38:18.351Z,1012.84
2017-05-29T20:38:58.843Z,1012.8
2017-05-29T20:39:39.308Z,1012.81
2017-05-29T20:40:19.814Z,1012.8
2017-05-29T20:41:00.336Z,1012.8
2017-05-29T20:41:40.823Z,1012.81
2017-05-29T20:42:21.339Z,1012.8
2017-05-29T20:43:01.834Z,1012.79
2017-05-29T20:43:42.335Z,1012.79
2017-05-29T20:44:22.800Z,1012.8
2017-05-29T20:45:03.309Z,1012.8
2017-05-29T20:45:43.803Z,1012.81
2017-05-29T20:46:24.286Z,1012.78
2017-05-29T20:47:04.824Z,1012.8
2017-05-29T20:47:45.319Z,1012.78
2017-05-29T20:48:25.839Z,1012.74
2017-05-29T20:49:06.338Z,1012.75
2017-05-29T20:49:46.849Z,1012.73
2017-05-29T20:50:27.320Z,1012.71
2017-05-29T20:51:07.806Z,1012.69
2017-05-29T20:51:48.289Z,1012.7
2017-05-29T20:52:28.799Z,1012.66
2017-05-29T20:53:09.283Z,1012.72
2017-05-29T20:53:49.777Z,1012.69
2017-05-29T20:54:30.281Z,1012.69
2017-05-29T20:55:10.761Z,1012.73
2017-05-29T20:55:51.234Z,1012.72
2017-05-29T20:56:31.742Z,1012.71
2017-05-29T20:57:12.212Z,1012.72
2017-05-29T20:57:52.711Z,1012.72
2017-05-29T20:58:33.209Z,1012.65
2017-05-29T20:59:13.664Z,1012.68
2017-05-29T20:59:54.160Z,1012.69
2017-05-29T21:00:36.232Z,1012.7
2017-05-29T21:01:16.697Z,1012.69
2017-05-29T21:01:57.202Z,1012.69
2017-05-29T21:02:37.721Z,1012.7
2017-05-29T21:03:18.164Z,1012.69
2017-05-29T21:03:58.673Z,1012.69
2017-05-29T21:04:39.142Z,1012.63
2017-05-29T21:05:19.665Z,1012.63
2017-05-29T21:06:00.144Z,1012.65
2017-05-29T21:06:40.614Z,1012.68
2017-05-29T21:07:21.092Z,1012.67
2017-05-29T21:08:01.598Z,1012.67
2017-05-29T21:08:42.118Z,1012.64
2017-05-29T21:09:22.614Z,1012.61
2017-05-29T21:10:03.105Z,1012.61
2017-05-29T21:10:43.610Z,1012.64
2017-05-29T21:11:24.119Z,1012.64
2017-05-29T21:12:04.610Z,1012.64
2017-05-29T21:12:45.114Z,1012.62
2017-05-29T21:13:25.614Z,1012.58
2017-05-29T21:14:06.082Z,1012.55
2017-05-29T21:14:46.592Z,1012.58
2017-05-29T21:15:27.081Z,1012.53
2017-05-29T21:16:07.570Z,1012.51
2017-05-29T21:16:48.061Z,1012.5
2017-05-29T21:17:28.561Z,1012.48
2017-05-29T21:18:09.060Z,1012.49
2017-05-29T21:18:49.594Z,1012.46
2017-05-29T21:19:30.062Z,1012.46
2017-05-29T21:20:10.552Z,1012.42
2017-05-29T21:20:51.057Z,1012.43
2017-05-29T21:21:31.573Z,1012.41
2017-05-29T21:22:12.057Z,1012.42
2017-05-29T21:22:52.543Z,1012.39
2017-05-29T21:23:33.041Z,1012.44
2017-05-29T21:24:13.518Z,1012.41
2017-05-29T21:24:54.020Z,1012.38
2017-05-29T21:25:34.521Z,1012.41
2017-05-29T21:26:15.015Z,1012.4
2017-05-29T21:26:55.518Z,1012.42
2017-05-29T21:27:36.003Z,1012.45
2017-05-29T21:28:16.483Z,1012.43
2017-05-29T21:28:56.976Z,1012.4
2017-05-29T21:29:37.504Z,1012.41
2017-05-29T21:30:17.994Z,1012.39
2017-05-29T21:30:58.484Z,1012.41
2017-05-29T21:31:38.986Z,1012.38
2017-05-29T21:33:57.310Z,1012.4
2017-05-29T21:34:37.844Z,1012.38
2017-05-29T21:35:18.334Z,1012.38
2017-05-29T21:35:58.790Z,1012.38
2017-05-29T21:36:39.292Z,1012.37
2017-05-29T21:37:19.772Z,1012.37
2017-05-29T21:38:00.273Z,1012.38
2017-05-29T21:38:40.738Z,1012.39
2017-05-29T21:39:21.250Z,1012.4
2017-05-29T21:40:01.717Z,1012.38
2017-05-29T21:40:42.203Z,1012.36
2017-05-29T21:41:22.707Z,1012.4
2017-05-29T21:42:03.179Z,1012.36
2017-05-29T21:42:43.690Z,1012.37
2017-05-29T21:43:24.161Z,1012.35
2017-05-29T21:44:04.648Z,1012.34
2017-05-29T21:44:45.130Z,1012.35
2017-05-29T21:45:25.613Z,1012.36
2017-05-29T21:46:06.092Z,1012.34
2017-05-29T21:46:46.577Z,1012.34
2017-05-29T21:47:27.080Z,1012.34
2017-05-29T21:48:07.553Z,1012.34
2017-05-29T21:48:48.023Z,1012.33
2017-05-29T21:49:28.526Z,1012.34
2017-05-29T21:50:09.024Z,1012.38
2017-05-29T21:50:49.517Z,1012.4
2017-05-29T21:51:30.010Z,1012.37
2017-05-29T21:52:10.512Z,1012.38
2017-05-29T21:52:51.009Z,1012.37
2017-05-29T21:53:31.469Z,1012.34
2017-05-29T21:54:11.965Z,1012.33
2017-05-29T21:54:52.424Z,1012.31
2017-05-29T21:55:32.912Z,1012.3
2017-05-29T21:56:13.397Z,1012.31
2017-05-29T21:56:53.904Z,1012.29
2017-05-29T21:57:34.381Z,1012.32
2017-05-29T21:58:14.845Z,1012.3
2017-05-29T21:58:55.353Z,1012.3
2017-05-29T21:59:35.856Z,1012.3
2017-05-29T22:00:16.325Z,1012.29
2017-05-29T22:00:56.820Z,1012.24
2017-05-29T22:01:37.354Z,1012.28
2017-05-29T22:02:17.855Z,1012.26
2017-05-29T22:02:58.347Z,1012.23
2017-05-29T22:03:38.819Z,1012.29
2017-05-29T22:04:19.332Z,1012.26
2017-05-29T22:04:59.821Z,1012.29
2017-05-29T22:05:40.319Z,1012.28
2017-05-29T22:06:20.804Z,1012.32
2017-05-29T22:07:01.306Z,1012.25
2017-05-29T22:07:41.803Z,1012.27
2017-05-29T22:08:22.336Z,1012.24
2017-05-29T22:09:02.825Z,1012.27
2017-05-29T22:09:43.364Z,1012.25
2017-05-29T22:10:23.852Z,1012.22
2017-05-29T22:11:04.360Z,1012.22
2017-05-29T22:11:44.864Z,1012.21
2017-05-29T22:12:25.342Z,1012.23
2017-05-29T22:13:05.828Z,1012.2
2017-05-29T22:13:46.325Z,1012.25